Bloemfontein, South Africa
Current Conditions -  °F | °C
As of 4:00 PM on Saturday 25 Oct 2014 (Local Time) from FABL Reporting Station
Scattered Clouds Scattered Clouds  
Wind Chill: 88°   Ceiling: Unl
Heat Index: 88°   Visibility: 6mi
Dew Point: 41°   Wind: 7mph
Humidity: 19%   Direction: 260°W
Pressure: 30"   Gusts: NA
Location:  29.15°S, 26.23°E
Report Text: FABL 251400Z 26006KT 190V360 9999 FEW045TCU SCT050 31/05 Q1016 NOSIG
Loading
Personal Weather Stations






























Interactive Weather Map
Tropical Storm Tracking
New forecast layout! Learn more

10-Day Weather Forecast

Advertisements
Track Severe Weather on mobile